Time;durP1;ratioP1;P1;durP2;ratioP2;P2;SDS_P1;SDS_P2;PMS_P1;PMS_P2;Temp;Humidity;BMP_temperature;BMP_pressure;BME280_temperature;BME280_humidity;BME280_pressure;Samples;Min_cycle;Max_cycle;Signal;HPM_P1;HPM_P2
2022/10/27 00:02:19;;;;;;;9.07;7.23;;;;;;;;;;4980411;28;20209;-63
2022/10/27 00:04:46;;;;;;;10.10;6.90;;;;;;;;;;4982292;28;20282;-63
2022/10/27 00:07:14;;;;;;;10.07;6.17;;;;;;;;;;4985877;28;20204;-63
2022/10/27 00:09:41;;;;;;;8.40;6.17;;;;;;;;;;4985371;28;20231;-61
2022/10/27 00:12:09;;;;;;;8.70;4.90;;;;;;;;;;4975098;28;20283;-63
2022/10/27 00:14:36;;;;;;;6.60;4.40;;;;;;;;;;4972566;28;20300;-63
2022/10/27 00:17:04;;;;;;;12.93;5.80;;;;;;;;;;4973764;28;20203;-63
2022/10/27 00:19:31;;;;;;;8.27;4.40;;;;;;;;;;4967375;28;20248;-63
2022/10/27 00:21:59;;;;;;;4.57;3.73;;;;;;;;;;4973736;28;20208;-61
2022/10/27 00:24:27;;;;;;;11.87;4.30;;;;;;;;;;4970429;28;20250;-62
2022/10/27 00:26:54;;;;;;;13.70;5.20;;;;;;;;;;4988210;28;20294;-63
2022/10/27 00:29:21;;;;;;;12.93;5.03;;;;;;;;;;4974953;28;20269;-63
2022/10/27 00:31:49;;;;;;;10.67;5.83;;;;;;;;;;4974202;28;21277;-62
2022/10/27 00:34:17;;;;;;;8.80;6.37;;;;;;;;;;4962956;28;20220;-61
2022/10/27 00:36:44;;;;;;;9.47;5.07;;;;;;;;;;4974089;28;20266;-63
2022/10/27 00:39:12;;;;;;;7.03;4.50;;;;;;;;;;4976496;28;20642;-63
2022/10/27 00:41:40;;;;;;;13.77;5.40;;;;;;;;;;4970183;28;20359;-62
2022/10/27 00:44:26;;;;;;;21.80;7.20;;;;;;;;;;4984919;28;20595;-63
2022/10/27 00:46:53;;;;;;;15.53;9.13;;;;;;;;;;4969860;28;20218;-63
2022/10/27 00:49:24;;;;;;;15.87;9.77;;;;;;;;;;4970554;28;20239;-63
2022/10/27 00:51:53;;;;;;;11.57;8.87;;;;;;;;;;4981497;28;20209;-61
2022/10/27 00:54:21;;;;;;;7.33;6.20;;;;;;;;;;4973700;28;20209;-61
2022/10/27 00:56:50;;;;;;;8.13;7.13;;;;;;;;;;4970390;28;20218;-62
2022/10/27 00:59:18;;;;;;;10.33;6.80;;;;;;;;;;4969299;28;20656;-62
2022/10/27 01:01:46;;;;;;;10.67;6.97;;;;;;;;;;4972960;28;20212;-63
2022/10/27 01:04:15;;;;;;;9.03;7.20;;;;;;;;;;4987996;28;20292;-63
2022/10/27 01:06:42;;;;;;;7.17;6.47;;;;;;;;;;4972810;28;20290;-63
2022/10/27 01:09:11;;;;;;;7.50;6.53;;;;;;;;;;4971098;28;20242;-62
2022/10/27 01:11:39;;;;;;;6.90;5.63;;;;;;;;;;4974097;28;20296;-62
2022/10/27 01:14:06;;;;;;;6.07;4.43;;;;;;;;;;4968351;28;20338;-63
2022/10/27 01:16:33;;;;;;;4.50;4.10;;;;;;;;;;4989875;28;20208;-63
2022/10/27 01:19:16;;;;;;;4.00;3.60;;;;;;;;;;4992463;28;20318;-63
2022/10/27 01:21:56;;;;;;;3.83;3.47;;;;;;;;;;4975733;28;20276;-64
2022/10/27 01:24:42;;;;;;;3.33;3.03;;;;;;;;;;4990845;28;20214;-63
2022/10/27 01:27:28;;;;;;;2.93;2.73;;;;;;;;;;4985057;28;20238;-63
2022/10/27 01:29:59;;;;;;;3.10;2.80;;;;;;;;;;4974968;28;20243;-62
2022/10/27 01:32:29;;;;;;;4.27;2.80;;;;;;;;;;4988252;28;20242;-63
2022/10/27 01:35:02;;;;;;;3.30;3.00;;;;;;;;;;4975599;28;20189;-63
2022/10/27 01:37:37;;;;;;;3.30;3.00;;;;;;;;;;4998144;28;20298;-63
2022/10/27 01:40:16;;;;;;;4.47;3.63;;;;;;;;;;4993114;28;20334;-62
2022/10/27 01:42:51;;;;;;;4.37;3.27;;;;;;;;;;4985552;28;20215;-62
2022/10/27 01:45:26;;;;;;;3.67;3.23;;;;;;;;;;4972449;28;20215;-63
2022/10/27 01:47:56;;;;;;;3.70;3.33;;;;;;;;;;4971766;28;20249;-63
2022/10/27 01:50:32;;;;;;;5.23;4.17;;;;;;;;;;4974387;28;20249;-63
2022/10/27 01:53:19;;;;;;;3.30;3.00;;;;;;;;;;4986524;28;20216;-63
2022/10/27 01:56:02;;;;;;;4.03;3.60;;;;;;;;;;4992044;28;20203;-63
2022/10/27 01:58:39;;;;;;;8.00;4.00;;;;;;;;;;4977818;28;20227;-62
2022/10/27 02:01:12;;;;;;;6.37;3.77;;;;;;;;;;4986358;28;20258;-63
2022/10/27 02:03:46;;;;;;;5.10;3.73;;;;;;;;;;4989635;28;20239;-63
2022/10/27 02:06:20;;;;;;;4.50;4.10;;;;;;;;;;4992780;28;20208;-64
2022/10/27 02:09:11;;;;;;;3.77;3.37;;;;;;;;;;4992923;28;20319;-63
2022/10/27 02:11:41;;;;;;;3.50;3.20;;;;;;;;;;4980567;28;20305;-63
2022/10/27 02:14:08;;;;;;;6.83;3.37;;;;;;;;;;4998895;28;20874;-62
2022/10/27 02:16:41;;;;;;;4.07;3.70;;;;;;;;;;4979702;28;20224;-63
2022/10/27 02:19:13;;;;;;;5.20;3.90;;;;;;;;;;4979071;28;20324;-64
2022/10/27 02:21:42;;;;;;;3.43;3.00;;;;;;;;;;5000145;28;20617;-60
2022/10/27 02:24:09;;;;;;;5.83;3.30;;;;;;;;;;4975976;28;20218;-63
2022/10/27 02:26:36;;;;;;;3.70;3.40;;;;;;;;;;4975954;28;20693;-63
2022/10/27 02:29:08;;;;;;;4.50;3.80;;;;;;;;;;4988249;28;20242;-62
2022/10/27 02:31:38;;;;;;;3.47;3.00;;;;;;;;;;4977710;28;20300;-62
2022/10/27 02:34:06;;;;;;;3.90;3.27;;;;;;;;;;4976383;28;20200;-62
2022/10/27 02:36:33;;;;;;;5.30;3.90;;;;;;;;;;4994285;28;20741;-63
2022/10/27 02:39:00;;;;;;;4.17;3.60;;;;;;;;;;4989726;28;20282;-62
2022/10/27 02:41:28;;;;;;;5.67;4.00;;;;;;;;;;4988425;28;20215;-62
2022/10/27 02:43:55;;;;;;;4.40;3.80;;;;;;;;;;4974069;28;20227;-62
2022/10/27 02:46:23;;;;;;;6.23;3.90;;;;;;;;;;4976801;28;20319;-62
2022/10/27 02:48:50;;;;;;;5.57;3.80;;;;;;;;;;4972807;28;20323;-62
2022/10/27 02:51:17;;;;;;;3.53;3.23;;;;;;;;;;4972608;28;20204;-63
2022/10/27 02:53:45;;;;;;;4.27;3.87;;;;;;;;;;4965195;28;20204;-62
2022/10/27 02:56:12;;;;;;;8.00;5.33;;;;;;;;;;4990965;28;20306;-63
2022/10/27 02:58:39;;;;;;;7.43;5.40;;;;;;;;;;4970581;28;20293;-63
2022/10/27 03:01:07;;;;;;;6.70;4.30;;;;;;;;;;4977354;28;20211;-61
2022/10/27 03:03:35;;;;;;;7.37;4.10;;;;;;;;;;4968863;28;20219;-62
2022/10/27 03:06:06;;;;;;;8.37;5.47;;;;;;;;;;4983424;28;20211;-63
2022/10/27 03:08:34;;;;;;;9.27;6.00;;;;;;;;;;4970536;28;20227;-63
2022/10/27 03:11:01;;;;;;;9.33;5.43;;;;;;;;;;4974751;28;20225;-63
2022/10/27 03:13:28;;;;;;;7.73;5.00;;;;;;;;;;4983648;28;20235;-62
2022/10/27 03:15:55;;;;;;;4.90;4.40;;;;;;;;;;4971468;28;20207;-62
2022/10/27 03:18:23;;;;;;;6.13;3.90;;;;;;;;;;4969766;28;20745;-63
2022/10/27 03:20:50;;;;;;;5.50;4.17;;;;;;;;;;4973409;28;20222;-63
2022/10/27 03:23:17;;;;;;;4.00;3.60;;;;;;;;;;4965534;28;20217;-62
2022/10/27 03:25:45;;;;;;;5.20;3.73;;;;;;;;;;4964473;28;20294;-62
2022/10/27 03:28:14;;;;;;;7.93;6.00;;;;;;;;;;4991079;28;20215;-62
2022/10/27 03:30:42;;;;;;;4.77;4.20;;;;;;;;;;4984185;28;20270;-63
2022/10/27 03:33:09;;;;;;;5.20;3.83;;;;;;;;;;4979179;28;20214;-62
2022/10/27 03:35:36;;;;;;;6.27;4.07;;;;;;;;;;4967134;28;20286;-62
2022/10/27 03:38:03;;;;;;;5.83;3.73;;;;;;;;;;4970544;28;20203;-63
2022/10/27 03:40:31;;;;;;;7.20;3.90;;;;;;;;;;4971043;28;20214;-62
2022/10/27 03:42:58;;;;;;;4.73;3.30;;;;;;;;;;4974113;28;20204;-63
2022/10/27 03:45:26;;;;;;;5.07;3.40;;;;;;;;;;4970059;28;20215;-62
2022/10/27 03:48:01;;;;;;;10.40;4.37;;;;;;;;;;4973477;28;20310;-63
2022/10/27 03:50:29;;;;;;;10.87;4.33;;;;;;;;;;4970361;28;20227;-62
2022/10/27 03:52:56;;;;;;;18.97;4.63;;;;;;;;;;4986179;28;20212;-62
2022/10/27 03:55:24;;;;;;;9.13;4.10;;;;;;;;;;4971751;28;20200;-62
2022/10/27 03:57:52;;;;;;;7.17;5.17;;;;;;;;;;4969483;28;20576;-63
2022/10/27 04:00:19;;;;;;;10.30;6.10;;;;;;;;;;4985905;28;20718;-62
2022/10/27 04:02:46;;;;;;;10.77;6.53;;;;;;;;;;4999499;28;20215;-63
2022/10/27 04:05:14;;;;;;;5.20;4.70;;;;;;;;;;4982450;28;20222;-62
2022/10/27 04:07:41;;;;;;;3.87;3.10;;;;;;;;;;4981369;28;20294;-62
2022/10/27 04:10:14;;;;;;;2.73;2.53;;;;;;;;;;4994819;28;20231;-62
2022/10/27 04:12:54;;;;;;;5.47;4.80;;;;;;;;;;4964904;28;20679;-62
2022/10/27 04:15:24;;;;;;;5.13;4.60;;;;;;;;;;4975263;28;20330;-63
2022/10/27 04:17:59;;;;;;;5.40;4.90;;;;;;;;;;4973107;28;20209;-63
2022/10/27 04:20:27;;;;;;;5.17;4.60;;;;;;;;;;4976203;28;20366;-62
2022/10/27 04:22:57;;;;;;;5.07;4.57;;;;;;;;;;4981406;28;20502;-63
2022/10/27 04:25:25;;;;;;;7.53;5.10;;;;;;;;;;4975803;28;20212;-63
2022/10/27 04:28:06;;;;;;;5.93;5.30;;;;;;;;;;4972899;28;20207;-62
2022/10/27 04:30:34;;;;;;;7.33;4.50;;;;;;;;;;4970038;28;20246;-63
2022/10/27 04:33:01;;;;;;;6.80;3.50;;;;;;;;;;4996250;28;20621;-63
2022/10/27 04:35:28;;;;;;;5.53;2.93;;;;;;;;;;4971106;28;20212;-63
2022/10/27 04:37:56;;;;;;;5.27;3.50;;;;;;;;;;4976187;28;20214;-63
2022/10/27 04:40:24;;;;;;;4.53;3.80;;;;;;;;;;4974478;28;20317;-63
2022/10/27 04:42:51;;;;;;;8.50;4.40;;;;;;;;;;4980824;28;20273;-62
2022/10/27 04:45:18;;;;;;;11.47;5.33;;;;;;;;;;4993977;28;20221;-62
2022/10/27 04:47:46;;;;;;;9.83;5.87;;;;;;;;;;4974726;28;20297;-63
2022/10/27 04:50:14;;;;;;;8.37;6.00;;;;;;;;;;4978204;28;20752;-62
2022/10/27 04:52:42;;;;;;;8.23;5.03;;;;;;;;;;4978913;28;20330;-63
2022/10/27 04:55:11;;;;;;;11.33;4.37;;;;;;;;;;4975333;28;20222;-63
2022/10/27 04:57:38;;;;;;;10.27;3.87;;;;;;;;;;4979784;28;20251;-63
2022/10/27 05:00:05;;;;;;;4.97;4.17;;;;;;;;;;4974087;28;20231;-63
2022/10/27 05:02:33;;;;;;;7.30;4.47;;;;;;;;;;4972204;28;20218;-62
2022/10/27 05:05:05;;;;;;;4.73;4.07;;;;;;;;;;4976347;28;21735;-63
2022/10/27 05:07:32;;;;;;;8.57;4.57;;;;;;;;;;4972395;28;20207;-63
2022/10/27 05:09:59;;;;;;;8.37;4.90;;;;;;;;;;4977136;28;20342;-63
2022/10/27 05:12:26;;;;;;;8.90;4.43;;;;;;;;;;4976770;28;20207;-63
2022/10/27 05:14:54;;;;;;;5.57;4.93;;;;;;;;;;4971831;28;21148;-64
2022/10/27 05:17:22;;;;;;;6.80;5.17;;;;;;;;;;4989989;28;20287;-62
2022/10/27 05:19:49;;;;;;;9.63;5.47;;;;;;;;;;4985076;28;20251;-63
2022/10/27 05:22:16;;;;;;;9.10;5.43;;;;;;;;;;4988491;28;20218;-62
2022/10/27 05:24:44;;;;;;;6.53;5.47;;;;;;;;;;4985532;28;20207;-64
2022/10/27 05:27:11;;;;;;;10.70;6.57;;;;;;;;;;4988164;28;20210;-61
2022/10/27 05:29:38;;;;;;;12.40;8.20;;;;;;;;;;4985907;28;20334;-63
2022/10/27 05:32:05;;;;;;;10.63;7.37;;;;;;;;;;4965770;28;20244;-63
2022/10/27 05:34:33;;;;;;;9.13;7.67;;;;;;;;;;4973429;28;20233;-63
2022/10/27 05:37:00;;;;;;;8.60;5.63;;;;;;;;;;4991799;28;20317;-63
2022/10/27 05:39:27;;;;;;;10.23;7.33;;;;;;;;;;4976569;28;20234;-63
2022/10/27 05:41:54;;;;;;;11.00;6.43;;;;;;;;;;4972052;28;20226;-62
2022/10/27 05:44:22;;;;;;;10.67;6.40;;;;;;;;;;4977508;28;20242;-62
2022/10/27 05:46:49;;;;;;;13.20;10.73;;;;;;;;;;4973647;28;20219;-63
2022/10/27 05:49:16;;;;;;;19.43;13.30;;;;;;;;;;4973828;28;20557;-63
2022/10/27 05:51:43;;;;;;;14.63;12.23;;;;;;;;;;4971000;28;20235;-63
2022/10/27 05:54:11;;;;;;;19.30;13.63;;;;;;;;;;4975679;28;20752;-62
2022/10/27 05:56:38;;;;;;;15.77;11.00;;;;;;;;;;4972926;28;20202;-63
2022/10/27 05:59:05;;;;;;;14.70;10.97;;;;;;;;;;4972468;28;20677;-63
2022/10/27 06:01:33;;;;;;;12.93;9.77;;;;;;;;;;4979647;28;20688;-63
2022/10/27 06:04:00;;;;;;;13.23;8.63;;;;;;;;;;4975379;28;20825;-63
2022/10/27 06:06:28;;;;;;;10.13;7.47;;;;;;;;;;4973483;28;20363;-63
2022/10/27 06:08:55;;;;;;;11.20;8.50;;;;;;;;;;4973224;28;20853;-63
2022/10/27 06:11:23;;;;;;;10.03;8.00;;;;;;;;;;4978910;28;20318;-63
2022/10/27 06:13:51;;;;;;;15.13;9.27;;;;;;;;;;4976386;28;20714;-63
2022/10/27 06:16:24;;;;;;;10.87;8.97;;;;;;;;;;4988333;28;20298;-63
2022/10/27 06:18:52;;;;;;;12.57;9.90;;;;;;;;;;4970133;28;20318;-63
2022/10/27 06:21:20;;;;;;;14.13;10.17;;;;;;;;;;4978316;28;20204;-63
2022/10/27 06:23:48;;;;;;;17.40;13.57;;;;;;;;;;4990187;28;20726;-63
2022/10/27 06:26:16;;;;;;;17.23;12.30;;;;;;;;;;4977380;28;20294;-63
2022/10/27 06:28:43;;;;;;;12.60;8.97;;;;;;;;;;4972730;28;20322;-63
2022/10/27 06:31:11;;;;;;;8.63;6.40;;;;;;;;;;4973077;28;20222;-63
2022/10/27 06:33:38;;;;;;;7.63;6.23;;;;;;;;;;4978758;28;20211;-63
2022/10/27 06:36:06;;;;;;;8.50;6.13;;;;;;;;;;4970486;28;20486;-63
2022/10/27 06:38:33;;;;;;;11.13;7.83;;;;;;;;;;4973163;28;20661;-63
2022/10/27 06:41:00;;;;;;;10.90;6.37;;;;;;;;;;4974826;28;20211;-63
2022/10/27 06:43:27;;;;;;;12.47;6.23;;;;;;;;;;4982888;28;20222;-63
2022/10/27 06:45:55;;;;;;;11.40;5.50;;;;;;;;;;4974856;28;20213;-63
2022/10/27 06:48:27;;;;;;;9.03;5.80;;;;;;;;;;4975562;28;20317;-63
2022/10/27 06:50:55;;;;;;;9.40;6.90;;;;;;;;;;4968351;28;20322;-64
2022/10/27 06:53:22;;;;;;;9.73;5.73;;;;;;;;;;4972540;28;20212;-63
2022/10/27 06:55:50;;;;;;;11.63;6.00;;;;;;;;;;4991320;28;20206;-63
2022/10/27 06:58:17;;;;;;;11.10;5.93;;;;;;;;;;4974183;28;20208;-63
2022/10/27 07:00:44;;;;;;;11.27;6.17;;;;;;;;;;4968322;28;20305;-62
2022/10/27 07:03:12;;;;;;;10.77;6.63;;;;;;;;;;4973200;28;20226;-63
2022/10/27 07:05:39;;;;;;;12.07;6.20;;;;;;;;;;4971103;28;20239;-61
2022/10/27 07:08:06;;;;;;;8.67;5.90;;;;;;;;;;4968127;28;20673;-62
2022/10/27 07:10:34;;;;;;;8.63;5.93;;;;;;;;;;4970526;28;20899;-63
2022/10/27 07:13:02;;;;;;;7.87;5.27;;;;;;;;;;4973635;28;20302;-63
2022/10/27 07:15:31;;;;;;;8.03;4.70;;;;;;;;;;4973513;28;20200;-63
2022/10/27 07:18:00;;;;;;;8.20;5.10;;;;;;;;;;4978994;28;20674;-64
2022/10/27 07:20:29;;;;;;;8.10;5.40;;;;;;;;;;4984011;28;20735;-63
2022/10/27 07:22:57;;;;;;;5.90;5.30;;;;;;;;;;4985322;28;20302;-63
2022/10/27 07:25:25;;;;;;;9.13;6.40;;;;;;;;;;4984835;28;20668;-63
2022/10/27 07:27:52;;;;;;;8.83;5.93;;;;;;;;;;4975167;28;20626;-63
2022/10/27 07:30:22;;;;;;;8.03;6.83;;;;;;;;;;4987087;28;20590;-63
2022/10/27 07:32:49;;;;;;;8.03;6.87;;;;;;;;;;4987340;28;20208;-63
2022/10/27 07:35:17;;;;;;;6.70;6.00;;;;;;;;;;4985233;28;20218;-62
2022/10/27 07:37:45;;;;;;;8.37;5.27;;;;;;;;;;4972015;28;20216;-62
2022/10/27 07:40:13;;;;;;;9.50;4.73;;;;;;;;;;4972765;28;20289;-62
2022/10/27 07:42:48;;;;;;;8.23;4.80;;;;;;;;;;4972087;28;20649;-63
2022/10/27 07:45:17;;;;;;;8.57;4.77;;;;;;;;;;4972252;28;20222;-62
2022/10/27 07:47:49;;;;;;;9.07;4.90;;;;;;;;;;4968978;28;20203;-62
2022/10/27 07:50:18;;;;;;;10.13;5.20;;;;;;;;;;4968637;28;20254;-63
2022/10/27 07:52:47;;;;;;;6.93;5.03;;;;;;;;;;4979377;28;20211;-62
2022/10/27 07:55:15;;;;;;;10.17;6.13;;;;;;;;;;4977064;28;20244;-62
2022/10/27 07:57:43;;;;;;;10.50;7.17;;;;;;;;;;4980411;28;20199;-63
2022/10/27 08:00:14;;;;;;;11.90;6.77;;;;;;;;;;4987278;28;20310;-63
2022/10/27 08:02:42;;;;;;;7.63;5.67;;;;;;;;;;4986172;28;20207;-62
2022/10/27 08:05:10;;;;;;;9.07;5.23;;;;;;;;;;5002021;28;20690;-63
2022/10/27 08:07:37;;;;;;;14.60;5.97;;;;;;;;;;4985988;28;20254;-63
2022/10/27 08:10:05;;;;;;;8.60;4.87;;;;;;;;;;4989404;28;20268;-63
2022/10/27 08:12:33;;;;;;;7.80;4.70;;;;;;;;;;4981825;28;20227;-63
2022/10/27 08:15:00;;;;;;;7.37;4.30;;;;;;;;;;4982300;28;21762;-63
2022/10/27 08:17:28;;;;;;;8.93;4.87;;;;;;;;;;4977316;28;20858;-63
2022/10/27 08:19:56;;;;;;;8.77;4.50;;;;;;;;;;4976571;28;20229;-63
2022/10/27 08:22:23;;;;;;;8.30;4.13;;;;;;;;;;4975705;28;20231;-61
2022/10/27 08:24:51;;;;;;;7.07;3.80;;;;;;;;;;4995204;28;20215;-63
2022/10/27 08:27:19;;;;;;;9.30;3.63;;;;;;;;;;4974091;28;20211;-62
2022/10/27 08:29:47;;;;;;;11.63;3.75;;;;;;;;;;4978898;28;20223;-63
2022/10/27 08:32:15;;;;;;;4.57;2.97;;;;;;;;;;4972945;28;20223;-62
2022/10/27 08:34:42;;;;;;;8.63;3.50;;;;;;;;;;4989585;28;20299;-62
2022/10/27 08:37:15;;;;;;;4.32;3.00;;;;;;;;;;4978639;28;20650;-62
2022/10/27 08:39:42;;;;;;;6.00;3.20;;;;;;;;;;4978207;28;20321;-63
2022/10/27 08:42:20;;;;;;;10.77;3.70;;;;;;;;;;4978713;28;20366;-63
2022/10/27 08:44:58;;;;;;;10.60;3.85;;;;;;;;;;4977079;28;20222;-63
2022/10/27 08:47:26;;;;;;;7.28;3.65;;;;;;;;;;4974416;28;20307;-63
2022/10/27 08:50:14;;;;;;;6.88;3.28;;;;;;;;;;4989155;28;20233;-63
2022/10/27 08:52:43;;;;;;;8.43;3.00;;;;;;;;;;4975606;28;20247;-63
2022/10/27 08:55:14;;;;;;;6.85;3.10;;;;;;;;;;4977993;28;20310;-64
2022/10/27 08:57:45;;;;;;;7.03;3.20;;;;;;;;;;4991198;28;20814;-63
2022/10/27 09:00:13;;;;;;;4.53;2.72;;;;;;;;;;4974268;28;20231;-62
2022/10/27 09:02:44;;;;;;;8.75;3.50;;;;;;;;;;4978389;28;20339;-61
2022/10/27 09:05:22;;;;;;;9.93;4.38;;;;;;;;;;4972146;28;20311;-62
2022/10/27 09:08:16;;;;;;;11.23;4.15;;;;;;;;;;4975163;28;20337;-63
2022/10/27 09:11:19;;;;;;;8.60;4.05;;;;;;;;;;4978128;28;20304;-63
2022/10/27 09:13:46;;;;;;;6.82;4.10;;;;;;;;;;4917484;29;20219;-63
2022/10/27 09:16:16;;;;;;;11.40;4.28;;;;;;;;;;4965660;28;20748;-63
2022/10/27 09:18:46;;;;;;;10.20;4.13;;;;;;;;;;4977441;28;20227;-62
2022/10/27 09:21:16;;;;;;;5.75;2.97;;;;;;;;;;4985710;28;21578;-63
2022/10/27 09:23:54;;;;;;;9.60;2.90;;;;;;;;;;4992266;28;20302;-63
2022/10/27 09:26:24;;;;;;;7.40;2.70;;;;;;;;;;4984795;28;20320;-62
2022/10/27 09:28:53;;;;;;;6.28;2.35;;;;;;;;;;4990669;28;20258;-63
2022/10/27 09:31:24;;;;;;;7.55;2.85;;;;;;;;;;4985754;28;20372;-62
2022/10/27 09:33:57;;;;;;;8.52;2.55;;;;;;;;;;4977930;28;20212;-62
2022/10/27 09:36:24;;;;;;;5.07;2.42;;;;;;;;;;4975564;28;20701;-63
2022/10/27 09:38:52;;;;;;;4.65;2.50;;;;;;;;;;4973188;28;20322;-63
2022/10/27 09:41:19;;;;;;;7.22;2.88;;;;;;;;;;4971063;28;20550;-63
2022/10/27 09:43:48;;;;;;;3.92;2.60;;;;;;;;;;4972861;28;20216;-62
2022/10/27 09:46:22;;;;;;;6.85;2.17;;;;;;;;;;4973491;28;20219;-63
2022/10/27 09:48:51;;;;;;;4.57;2.25;;;;;;;;;;4977605;28;20322;-63
2022/10/27 09:51:26;;;;;;;5.28;2.15;;;;;;;;;;4977035;28;20223;-63
2022/10/27 09:53:54;;;;;;;6.47;2.20;;;;;;;;;;4994180;28;20226;-63
2022/10/27 09:56:29;;;;;;;6.25;2.33;;;;;;;;;;4990535;28;20221;-62
2022/10/27 09:58:59;;;;;;;5.57;2.25;;;;;;;;;;4967621;28;20243;-62
2022/10/27 10:01:27;;;;;;;6.47;2.60;;;;;;;;;;4974273;28;20219;-63
2022/10/27 10:04:00;;;;;;;5.53;2.38;;;;;;;;;;4974212;28;20299;-62
2022/10/27 10:06:37;;;;;;;4.95;2.10;;;;;;;;;;4993753;28;20289;-63
2022/10/27 10:09:21;;;;;;;6.30;2.17;;;;;;;;;;4990563;28;20258;-65
2022/10/27 10:11:49;;;;;;;5.15;2.42;;;;;;;;;;4969729;28;20233;-63
2022/10/27 10:14:21;;;;;;;6.75;2.00;;;;;;;;;;4977298;28;20782;-62
2022/10/27 10:16:49;;;;;;;3.55;1.90;;;;;;;;;;4977514;28;20210;-63
2022/10/27 10:19:18;;;;;;;7.93;2.17;;;;;;;;;;4973036;28;20246;-61
2022/10/27 10:21:56;;;;;;;6.03;1.80;;;;;;;;;;4983514;28;20298;-62
2022/10/27 10:24:29;;;;;;;5.30;2.47;;;;;;;;;;4993391;28;20689;-62
2022/10/27 10:26:57;;;;;;;5.10;2.30;;;;;;;;;;4990803;28;21774;-62
2022/10/27 10:29:29;;;;;;;6.63;2.40;;;;;;;;;;4990131;28;22631;-62
2022/10/27 10:32:11;;;;;;;5.88;2.10;;;;;;;;;;4968692;28;20242;-62
2022/10/27 10:34:39;;;;;;;7.93;2.42;;;;;;;;;;4981004;28;20215;-63
2022/10/27 10:37:36;;;;;;;5.60;2.20;;;;;;;;;;4974085;28;20215;-63
2022/10/27 10:40:13;;;;;;;5.10;2.08;;;;;;;;;;4959685;28;20293;-63
2022/10/27 10:42:44;;;;;;;4.47;2.00;;;;;;;;;;4987553;28;20246;-63
2022/10/27 10:45:23;;;;;;;5.90;2.47;;;;;;;;;;4988596;28;20914;-63
2022/10/27 10:47:59;;;;;;;4.78;2.20;;;;;;;;;;4978908;28;20302;-64
2022/10/27 10:50:27;;;;;;;3.47;2.05;;;;;;;;;;4967730;28;20231;-63
2022/10/27 10:52:56;;;;;;;5.75;2.17;;;;;;;;;;4966134;28;20333;-64
2022/10/27 10:55:35;;;;;;;8.32;2.00;;;;;;;;;;4986591;28;20214;-63
2022/10/27 10:58:03;;;;;;;8.15;2.20;;;;;;;;;;4972676;28;20207;-63
2022/10/27 11:00:30;;;;;;;4.72;1.83;;;;;;;;;;4978712;28;20647;-62
2022/10/27 11:03:00;;;;;;;5.03;2.15;;;;;;;;;;4991227;28;20628;-63
2022/10/27 11:05:31;;;;;;;6.25;2.00;;;;;;;;;;4989838;28;20299;-63
2022/10/27 11:07:59;;;;;;;5.85;2.22;;;;;;;;;;4972345;28;20882;-62
2022/10/27 11:10:34;;;;;;;4.53;2.30;;;;;;;;;;4970433;28;20234;-64
2022/10/27 11:13:01;;;;;;;6.85;1.88;;;;;;;;;;4976656;28;20265;-63
2022/10/27 11:15:31;;;;;;;4.70;2.08;;;;;;;;;;4970955;28;20203;-63
2022/10/27 11:18:01;;;;;;;6.57;2.35;;;;;;;;;;4987179;28;20612;-63
2022/10/27 11:20:33;;;;;;;4.85;2.00;;;;;;;;;;4980395;28;20306;-63
2022/10/27 11:23:03;;;;;;;9.05;2.67;;;;;;;;;;4983014;28;20214;-63
2022/10/27 11:25:32;;;;;;;4.22;2.20;;;;;;;;;;4984881;28;20290;-63
2022/10/27 11:28:04;;;;;;;3.60;1.85;;;;;;;;;;4975186;28;20213;-63
2022/10/27 11:30:35;;;;;;;4.43;2.20;;;;;;;;;;4970578;28;20354;-63
2022/10/27 11:33:02;;;;;;;6.30;2.25;;;;;;;;;;4971474;28;20235;-63
2022/10/27 11:35:38;;;;;;;6.97;2.35;;;;;;;;;;4962931;28;20354;-63
2022/10/27 11:38:16;;;;;;;6.93;2.13;;;;;;;;;;4984172;28;20203;-63
2022/10/27 11:40:53;;;;;;;6.93;2.30;;;;;;;;;;4973906;28;20302;-63
2022/10/27 11:43:31;;;;;;;3.05;1.80;;;;;;;;;;4973659;28;20467;-64
2022/10/27 11:46:08;;;;;;;3.53;1.92;;;;;;;;;;4971663;28;20219;-63
2022/10/27 11:48:45;;;;;;;5.90;1.70;;;;;;;;;;4975641;28;20326;-63
2022/10/27 11:51:18;;;;;;;5.28;2.08;;;;;;;;;;4968621;28;20580;-64
2022/10/27 11:53:45;;;;;;;8.80;2.30;;;;;;;;;;4973472;28;20231;-62
2022/10/27 11:56:21;;;;;;;7.00;1.80;;;;;;;;;;4967861;28;20336;-63
2022/10/27 11:58:55;;;;;;;5.40;1.90;;;;;;;;;;4973603;28;20668;-64
2022/10/27 12:01:29;;;;;;;4.55;1.88;;;;;;;;;;4970000;28;20216;-63
2022/10/27 12:04:06;;;;;;;9.02;2.50;;;;;;;;;;4985460;28;20214;-64
2022/10/27 12:06:57;;;;;;;7.85;2.38;;;;;;;;;;4969721;28;20218;-64
2022/10/27 12:09:26;;;;;;;5.28;1.85;;;;;;;;;;4969361;28;20704;-63
2022/10/27 12:12:06;;;;;;;8.10;2.17;;;;;;;;;;4978347;28;20223;-63
2022/10/27 12:14:39;;;;;;;5.00;1.80;;;;;;;;;;4979880;28;20210;-63
2022/10/27 12:17:13;;;;;;;7.85;2.05;;;;;;;;;;4996634;28;21834;-64
2022/10/27 12:19:43;;;;;;;5.38;1.90;;;;;;;;;;4983486;28;20230;-64
2022/10/27 12:22:13;;;;;;;6.50;2.30;;;;;;;;;;4997396;28;20566;-63
2022/10/27 12:25:07;;;;;;;5.28;1.90;;;;;;;;;;4990592;28;20303;-63
2022/10/27 12:27:39;;;;;;;4.45;1.60;;;;;;;;;;4973181;28;20211;-62
2022/10/27 12:30:10;;;;;;;4.47;1.50;;;;;;;;;;4991632;28;20313;-62
2022/10/27 12:32:39;;;;;;;5.22;1.55;;;;;;;;;;4992082;28;20234;-62
2022/10/27 12:35:15;;;;;;;5.60;1.52;;;;;;;;;;4970126;28;20322;-63
2022/10/27 12:38:05;;;;;;;3.53;1.40;;;;;;;;;;4973596;28;20929;-63
2022/10/27 12:40:45;;;;;;;6.82;1.80;;;;;;;;;;4969570;28;20306;-63
2022/10/27 12:43:16;;;;;;;1.83;1.45;;;;;;;;;;4992437;28;20218;-63
2022/10/27 12:45:49;;;;;;;4.38;1.70;;;;;;;;;;4975160;28;20235;-63
2022/10/27 12:48:52;;;;;;;4.85;1.48;;;;;;;;;;4971038;28;20215;-63
2022/10/27 12:51:45;;;;;;;4.88;1.60;;;;;;;;;;4901836;29;20304;-62
2022/10/27 12:54:12;;;;;;;7.95;1.60;;;;;;;;;;4938862;28;20243;-63
2022/10/27 12:56:44;;;;;;;5.35;1.60;;;;;;;;;;4976596;28;20288;-63
2022/10/27 12:59:11;;;;;;;5.53;1.40;;;;;;;;;;4975979;28;20250;-63
2022/10/27 13:01:48;;;;;;;5.60;2.03;;;;;;;;;;4970152;28;20715;-63
2022/10/27 13:04:38;;;;;;;7.82;1.95;;;;;;;;;;4969011;28;20217;-63
2022/10/27 13:07:11;;;;;;;5.70;1.45;;;;;;;;;;4976358;28;20295;-63
2022/10/27 13:09:57;;;;;;;4.97;1.92;;;;;;;;;;4986093;28;20518;-63
2022/10/27 13:12:36;;;;;;;5.88;1.67;;;;;;;;;;4976636;28;20241;-63
2022/10/27 13:15:04;;;;;;;5.43;1.90;;;;;;;;;;4975035;28;20335;-63
2022/10/27 13:17:50;;;;;;;4.80;1.90;;;;;;;;;;4974094;28;20303;-63
2022/10/27 13:20:24;;;;;;;4.57;2.10;;;;;;;;;;4984728;28;20223;-63
2022/10/27 13:22:54;;;;;;;5.82;1.85;;;;;;;;;;4984151;28;20234;-63
2022/10/27 13:25:29;;;;;;;5.38;1.80;;;;;;;;;;4984032;28;20669;-63
2022/10/27 13:27:59;;;;;;;3.65;1.60;;;;;;;;;;4993188;28;20273;-63
2022/10/27 13:30:31;;;;;;;3.55;1.27;;;;;;;;;;4973849;28;20604;-63
2022/10/27 13:32:58;;;;;;;3.05;1.40;;;;;;;;;;4975072;28;20219;-63
2022/10/27 13:35:26;;;;;;;4.50;1.50;;;;;;;;;;4974578;28;20215;-63
2022/10/27 13:37:58;;;;;;;8.15;2.10;;;;;;;;;;4973968;28;20208;-63
2022/10/27 13:40:25;;;;;;;5.40;1.50;;;;;;;;;;4969914;28;20219;-63
2022/10/27 13:42:54;;;;;;;6.25;1.65;;;;;;;;;;4973664;28;20765;-63
2022/10/27 13:45:27;;;;;;;3.83;1.77;;;;;;;;;;4977035;28;20243;-63
2022/10/27 13:48:07;;;;;;;3.97;1.80;;;;;;;;;;4967920;28;20199;-63
2022/10/27 13:50:35;;;;;;;3.50;1.50;;;;;;;;;;4989377;28;20207;-63
2022/10/27 13:53:30;;;;;;;8.43;2.20;;;;;;;;;;4972491;28;20289;-63
2022/10/27 13:56:20;;;;;;;5.05;1.75;;;;;;;;;;4971889;28;20886;-63
2022/10/27 13:59:03;;;;;;;5.07;1.70;;;;;;;;;;4976167;28;20224;-63
2022/10/27 14:01:45;;;;;;;7.10;1.73;;;;;;;;;;4987944;28;20278;-63
2022/10/27 14:04:21;;;;;;;5.72;1.80;;;;;;;;;;4976272;28;20223;-63
2022/10/27 14:06:56;;;;;;;6.60;1.98;;;;;;;;;;4977583;28;20603;-63
2022/10/27 14:09:33;;;;;;;3.58;1.60;;;;;;;;;;4972353;28;20237;-63
2022/10/27 14:12:04;;;;;;;4.13;1.88;;;;;;;;;;4976959;28;20294;-63
2022/10/27 14:14:31;;;;;;;3.58;1.52;;;;;;;;;;4974785;28;20270;-63
2022/10/27 14:17:00;;;;;;;2.60;1.70;;;;;;;;;;4990956;28;20231;-63
2022/10/27 14:19:29;;;;;;;4.22;1.65;;;;;;;;;;4967974;28;21281;-62
2022/10/27 14:21:57;;;;;;;3.22;1.50;;;;;;;;;;4968316;28;20254;-63
2022/10/27 14:24:25;;;;;;;3.75;1.85;;;;;;;;;;4973104;28;20204;-62
2022/10/27 14:27:03;;;;;;;5.00;2.00;;;;;;;;;;4975989;28;20577;-63
2022/10/27 14:29:30;;;;;;;5.30;1.60;;;;;;;;;;4973871;28;20314;-64
2022/10/27 14:32:12;;;;;;;4.10;1.80;;;;;;;;;;4973638;28;20216;-64
2022/10/27 14:34:40;;;;;;;5.18;2.00;;;;;;;;;;4972016;28;20210;-63
2022/10/27 14:37:14;;;;;;;4.15;1.90;;;;;;;;;;4969324;28;20245;-63
2022/10/27 14:39:41;;;;;;;4.28;1.88;;;;;;;;;;4965761;28;20223;-63
2022/10/27 14:42:20;;;;;;;3.45;2.30;;;;;;;;;;4972676;28;20208;-63
2022/10/27 14:45:08;;;;;;;5.55;1.73;;;;;;;;;;4973973;28;20836;-63
2022/10/27 14:47:40;;;;;;;6.00;2.10;;;;;;;;;;4968919;28;20211;-63
2022/10/27 14:50:12;;;;;;;5.10;2.33;;;;;;;;;;4963923;28;20330;-63
2022/10/27 14:52:42;;;;;;;5.07;2.38;;;;;;;;;;4991777;28;20597;-63
2022/10/27 14:55:18;;;;;;;8.20;2.05;;;;;;;;;;4974017;28;20214;-63
2022/10/27 14:57:49;;;;;;;5.28;2.15;;;;;;;;;;4974859;28;20363;-63
2022/10/27 15:00:22;;;;;;;5.78;2.20;;;;;;;;;;4976260;28;20228;-62
2022/10/27 15:02:50;;;;;;;3.92;2.33;;;;;;;;;;4971918;28;21191;-62
2022/10/27 15:05:26;;;;;;;7.97;2.40;;;;;;;;;;4972506;28;20254;-62